Time;durP1;ratioP1;P1;durP2;ratioP2;P2;SDS_P1;SDS_P2;PMS_P1;PMS_P2;Temp;Humidity;BMP_temperature;BMP_pressure;BME280_temperature;BME280_humidity;BME280_pressure;Samples;Min_cycle;Max_cycle;Signal;HPM_P1;HPM_P2
2023/05/13 00:01:06;;;;;;;1.90;1.80;;;21.60;75.00;;;;;;5076091;28;20548;-88
2023/05/13 00:03:33;;;;;;;2.27;2.07;;;21.60;75.00;;;;;;5076056;28;20432;-81
2023/05/13 00:06:00;;;;;;;1.90;1.80;;;21.60;75.00;;;;;;5075958;28;20485;-81
2023/05/13 00:08:26;;;;;;;1.70;1.60;;;21.60;75.00;;;;;;5075768;28;20441;-81
2023/05/13 00:10:53;;;;;;;2.23;2.03;;;21.60;74.90;;;;;;5075833;28;20482;-81
2023/05/13 00:13:21;;;;;;;1.80;1.70;;;21.60;75.80;;;;;;5075869;28;20523;-81
2023/05/13 00:15:48;;;;;;;1.80;1.70;;;21.60;75.00;;;;;;5075830;28;20529;-81
2023/05/13 00:18:15;;;;;;;2.03;1.93;;;21.60;75.00;;;;;;5075787;28;20441;-81
2023/05/13 00:20:42;;;;;;;2.00;1.90;;;21.60;75.00;;;;;;5075660;28;20536;-81
2023/05/13 00:23:10;;;;;;;2.60;2.43;;;21.60;75.00;;;;;;5075606;28;20432;-82
2023/05/13 00:25:37;;;;;;;2.00;1.90;;;21.60;74.90;;;;;;5075559;28;20515;-88
2023/05/13 00:28:04;;;;;;;2.30;2.10;;;21.60;75.00;;;;;;5075346;28;20450;-82
2023/05/13 00:30:32;;;;;;;2.20;2.00;;;21.60;75.00;;;;;;5075454;28;20462;-81
2023/05/13 00:32:59;;;;;;;1.90;1.80;;;21.60;75.00;;;;;;5075472;28;20438;-82
2023/05/13 00:35:25;;;;;;;1.93;1.77;;;21.60;75.00;;;;;;5075522;28;20935;-81
2023/05/13 00:37:52;;;;;;;2.67;2.47;;;21.60;75.00;;;;;;5075408;28;20528;-82
2023/05/13 00:40:24;;;;;;;2.13;2.03;;;21.60;74.90;;;;;;5075216;28;20437;-82
2023/05/13 00:42:51;;;;;;;2.07;1.97;;;21.60;75.00;;;;;;5075375;28;20624;-81
2023/05/13 00:45:18;;;;;;;2.33;2.23;;;21.60;75.00;;;;;;5075193;28;20914;-82
2023/05/13 00:47:48;;;;;;;2.17;2.03;;;21.60;75.00;;;;;;5075173;28;20437;-82
2023/05/13 00:50:15;;;;;;;2.30;2.20;;;21.60;75.00;;;;;;5075157;28;20931;-81
2023/05/13 00:52:43;;;;;;;1.97;1.87;;;21.60;75.00;;;;;;5075295;28;20426;-82
2023/05/13 00:55:11;;;;;;;2.13;2.03;;;21.60;75.00;;;;;;5075069;28;20446;-81
2023/05/13 00:57:38;;;;;;;2.20;2.10;;;21.60;74.90;;;;;;5074884;28;20437;-82
2023/05/13 01:00:07;;;;;;;2.30;2.10;;;21.60;75.00;;;;;;5074970;28;20467;-81
2023/05/13 01:02:38;;;;;;;2.30;2.10;;;21.60;75.10;;;;;;5073644;28;20570;-81
2023/05/13 01:05:15;;;;;;;1.87;1.77;;;21.60;75.00;;;;;;5074889;28;20485;-82
2023/05/13 01:07:48;;;;;;;2.77;2.10;;;21.50;74.90;;;;;;5073636;28;20453;-82
2023/05/13 01:10:23;;;;;;;2.37;1.80;;;21.60;75.10;;;;;;5074591;28;20509;-81
2023/05/13 01:12:56;;;;;;;1.87;1.77;;;21.60;75.00;;;;;;5074702;28;20459;-82
2023/05/13 01:15:26;;;;;;;2.13;1.97;;;21.60;75.00;;;;;;5074906;28;20921;-81
2023/05/13 01:17:57;;;;;;;1.97;1.87;;;21.60;75.00;;;;;;5074555;28;20483;-82
2023/05/13 01:20:28;;;;;;;2.27;2.07;;;21.60;75.00;;;;;;5074943;28;20438;-82
2023/05/13 01:22:56;;;;;;;2.47;1.90;;;21.60;75.00;;;;;;5074643;28;20459;-82
2023/05/13 01:25:24;;;;;;;2.47;2.27;;;21.60;75.80;;;;;;5074518;28;20486;-82
2023/05/13 01:27:51;;;;;;;1.87;1.77;;;21.60;75.00;;;;;;5074142;28;20451;-81
2023/05/13 01:30:19;;;;;;;2.47;2.27;;;21.60;75.00;;;;;;5074225;28;20506;-81
2023/05/13 01:32:46;;;;;;;1.93;1.83;;;21.60;74.90;;;;;;5074415;28;20480;-81
2023/05/13 01:35:14;;;;;;;1.87;1.77;;;21.50;74.90;;;;;;5074295;28;20445;-88
2023/05/13 01:37:42;;;;;;;2.10;1.90;;;21.60;75.00;;;;;;5074200;28;20891;-81
2023/05/13 01:40:11;;;;;;;2.00;1.90;;;21.60;75.00;;;;;;5074254;28;20436;-81
2023/05/13 01:42:38;;;;;;;2.03;1.93;;;21.60;74.90;;;;;;5074162;28;20928;-81
2023/05/13 01:45:07;;;;;;;2.10;2.00;;;21.60;75.00;;;;;;5073932;28;20563;-81
2023/05/13 01:47:33;;;;;;;2.20;2.10;;;21.50;74.90;;;;;;5073973;28;20525;-81
2023/05/13 01:50:00;;;;;;;1.90;1.80;;;21.50;74.90;;;;;;5073853;28;21017;-81
2023/05/13 01:52:27;;;;;;;2.20;2.00;;;21.50;74.80;;;;;;5074127;28;20445;-81
2023/05/13 01:54:54;;;;;;;2.47;2.27;;;21.50;75.70;;;;;;5073884;28;20437;-81
2023/05/13 01:57:22;;;;;;;1.90;1.80;;;21.50;74.90;;;;;;5073679;28;20529;-83
2023/05/13 01:59:49;;;;;;;1.90;1.80;;;21.50;74.80;;;;;;5073627;28;20447;-81
2023/05/13 02:02:16;;;;;;;2.43;2.23;;;21.50;74.90;;;;;;5073817;28;20523;-81
2023/05/13 02:04:42;;;;;;;2.30;2.00;;;21.50;74.80;;;;;;5073770;28;20943;-81
2023/05/13 02:07:09;;;;;;;1.97;1.87;;;21.50;74.80;;;;;;5073552;28;20485;-81
2023/05/13 02:09:36;;;;;;;2.27;2.17;;;21.50;74.90;;;;;;5073361;28;20444;-81
2023/05/13 02:12:03;;;;;;;2.20;2.10;;;21.50;74.80;;;;;;5073590;28;20519;-81
2023/05/13 02:14:31;;;;;;;2.13;2.03;;;21.50;74.90;;;;;;5073516;28;20958;-81
2023/05/13 02:16:58;;;;;;;2.73;2.53;;;21.50;74.90;;;;;;5073477;28;20524;-81
2023/05/13 02:19:25;;;;;;;2.13;2.03;;;21.50;74.80;;;;;;5073244;28;20446;-81
2023/05/13 02:21:52;;;;;;;2.10;2.00;;;21.50;74.80;;;;;;5073362;28;20791;-81
2023/05/13 02:24:19;;;;;;;2.13;2.03;;;21.50;74.90;;;;;;5073296;28;20472;-81
2023/05/13 02:26:45;;;;;;;2.53;2.20;;;21.50;74.90;;;;;;5073200;28;20670;-82
2023/05/13 02:29:12;;;;;;;2.40;2.27;;;21.50;74.90;;;;;;5073311;28;20445;-81
2023/05/13 02:31:41;;;;;;;2.50;2.30;;;21.50;74.90;;;;;;5073283;28;20557;-81
2023/05/13 02:34:09;;;;;;;2.73;2.60;;;21.50;74.90;;;;;;5073325;28;20441;-81
2023/05/13 02:36:35;;;;;;;2.30;2.20;;;21.50;74.80;;;;;;5073215;28;20442;-82
2023/05/13 02:39:02;;;;;;;2.57;2.37;;;21.50;74.80;;;;;;5073403;28;20532;-82
2023/05/13 02:41:29;;;;;;;2.27;2.07;;;21.50;74.90;;;;;;5073265;28;20537;-82
2023/05/13 02:43:56;;;;;;;2.00;1.90;;;21.50;74.90;;;;;;5073086;28;20440;-82
2023/05/13 02:46:23;;;;;;;2.00;1.90;;;21.50;74.90;;;;;;5072763;28;20586;-82
2023/05/13 02:48:51;;;;;;;2.20;2.10;;;21.50;74.90;;;;;;5073157;28;20451;-82
2023/05/13 02:51:18;;;;;;;2.00;1.90;;;21.50;74.90;;;;;;5072988;28;20447;-82
2023/05/13 02:53:45;;;;;;;2.27;2.13;;;21.50;74.90;;;;;;5073157;28;20528;-82
2023/05/13 02:56:15;;;;;;;2.30;2.20;;;21.50;74.80;;;;;;5072954;28;20525;-82
2023/05/13 02:58:41;;;;;;;2.20;2.10;;;21.50;74.80;;;;;;5073068;28;20440;-82
2023/05/13 03:01:08;;;;;;;2.23;2.03;;;21.50;74.80;;;;;;5072844;28;20452;-82
2023/05/13 03:03:35;;;;;;;2.40;2.20;;;21.50;74.90;;;;;;5072959;28;20943;-81
2023/05/13 03:06:03;;;;;;;2.20;2.10;;;21.50;74.90;;;;;;5072817;28;20493;-82
2023/05/13 03:08:30;;;;;;;2.40;2.20;;;21.50;74.90;;;;;;5072937;28;20441;-82
2023/05/13 03:10:57;;;;;;;2.47;2.37;;;21.50;74.90;;;;;;5072664;28;20551;-81
2023/05/13 03:13:24;;;;;;;1.87;1.77;;;21.50;74.90;;;;;;5072891;28;20448;-81
2023/05/13 03:15:51;;;;;;;2.23;2.13;;;21.40;74.70;;;;;;5072826;28;20446;-81
2023/05/13 03:18:18;;;;;;;2.00;1.90;;;21.40;74.80;;;;;;5072908;28;20523;-83
2023/05/13 03:20:45;;;;;;;2.40;2.20;;;21.40;74.70;;;;;;5072897;28;20481;-81
2023/05/13 03:23:13;;;;;;;2.23;2.13;;;21.40;74.70;;;;;;5072756;28;20437;-81
2023/05/13 03:25:40;;;;;;;2.07;1.97;;;21.40;74.70;;;;;;5072603;28;20563;-81
2023/05/13 03:28:08;;;;;;;2.30;2.20;;;21.40;74.70;;;;;;5072590;28;20959;-81
2023/05/13 03:30:35;;;;;;;2.10;1.90;;;21.40;74.70;;;;;;5073829;28;20997;-81
2023/05/13 03:33:02;;;;;;;2.33;2.13;;;21.40;74.70;;;;;;5076616;28;20446;-81
2023/05/13 03:35:29;;;;;;;2.13;2.03;;;21.40;74.70;;;;;;5076560;28;20923;-81
2023/05/13 03:37:55;;;;;;;2.47;2.27;;;21.40;74.70;;;;;;5076500;28;20537;-83
2023/05/13 03:40:24;;;;;;;2.00;1.90;;;21.40;74.80;;;;;;5076611;28;20445;-81
2023/05/13 03:42:51;;;;;;;2.10;2.00;;;21.40;74.70;;;;;;5076468;28;20947;-81
2023/05/13 03:45:18;;;;;;;2.40;2.20;;;21.40;75.60;;;;;;5076541;28;20442;-81
2023/05/13 03:47:44;;;;;;;2.10;2.00;;;21.40;74.70;;;;;;5076086;28;20486;-81
2023/05/13 03:50:11;;;;;;;2.30;2.10;;;21.40;74.70;;;;;;5076465;28;20476;-81
2023/05/13 03:52:38;;;;;;;2.13;2.00;;;21.40;74.70;;;;;;5076128;28;20535;-81
2023/05/13 03:55:05;;;;;;;2.20;2.10;;;21.40;74.70;;;;;;5076205;28;20450;-87
2023/05/13 03:57:33;;;;;;;2.13;2.03;;;21.40;74.70;;;;;;5076244;28;20440;-81
2023/05/13 04:00:00;;;;;;;2.10;2.00;;;21.40;74.70;;;;;;5076181;28;20452;-81
2023/05/13 04:02:27;;;;;;;2.00;1.90;;;21.40;74.70;;;;;;5075988;28;20528;-81
2023/05/13 04:04:54;;;;;;;2.00;1.90;;;21.40;74.70;;;;;;5076075;28;20529;-81
2023/05/13 04:07:21;;;;;;;2.20;2.10;;;21.40;74.80;;;;;;5075654;28;20576;-81
2023/05/13 04:09:47;;;;;;;2.30;2.13;;;21.40;74.80;;;;;;5075724;28;20498;-82
2023/05/13 04:12:16;;;;;;;2.37;2.17;;;21.40;74.70;;;;;;5076065;28;20446;-81
2023/05/13 04:14:45;;;;;;;2.50;2.30;;;21.40;74.80;;;;;;5075756;28;20442;-81
2023/05/13 04:17:12;;;;;;;2.07;1.97;;;21.40;74.70;;;;;;5075727;28;20450;-81
2023/05/13 04:19:39;;;;;;;2.00;1.90;;;21.40;74.80;;;;;;5076007;28;20474;-81
2023/05/13 04:22:06;;;;;;;2.57;2.37;;;21.40;74.80;;;;;;5075681;28;20438;-81
2023/05/13 04:24:32;;;;;;;2.60;1.90;;;21.40;74.70;;;;;;5075755;28;20445;-82
2023/05/13 04:26:59;;;;;;;2.03;1.93;;;21.40;74.80;;;;;;5075439;28;20484;-81
2023/05/13 04:29:26;;;;;;;2.10;2.00;;;21.40;74.80;;;;;;5075760;28;20443;-81
2023/05/13 04:31:54;;;;;;;1.73;1.63;;;21.40;74.70;;;;;;5075411;28;20555;-81
2023/05/13 04:34:21;;;;;;;2.20;2.10;;;21.40;74.70;;;;;;5075511;28;20524;-82
2023/05/13 04:36:48;;;;;;;2.40;2.20;;;21.40;74.80;;;;;;5075494;28;20525;-82
2023/05/13 04:39:15;;;;;;;2.17;2.07;;;21.40;74.80;;;;;;5075291;28;20433;-81
2023/05/13 04:41:42;;;;;;;2.57;2.37;;;21.40;74.90;;;;;;5075176;28;20441;-82
2023/05/13 04:44:09;;;;;;;2.40;2.23;;;21.40;74.80;;;;;;5075288;28;20448;-81
2023/05/13 04:46:39;;;;;;;2.30;2.20;;;21.40;74.70;;;;;;5075015;28;20492;-81
2023/05/13 04:49:07;;;;;;;2.60;2.40;;;21.30;74.70;;;;;;5075333;28;20537;-81
2023/05/13 04:51:34;;;;;;;2.30;2.20;;;21.40;74.80;;;;;;5075153;28;20476;-81
2023/05/13 04:54:00;;;;;;;2.20;2.10;;;21.40;74.80;;;;;;5075252;28;20880;-81
2023/05/13 04:56:27;;;;;;;2.20;2.10;;;21.40;74.80;;;;;;5074996;28;20484;-81
2023/05/13 04:58:54;;;;;;;2.53;2.33;;;21.30;74.60;;;;;;5075036;28;20790;-81
2023/05/13 05:01:21;;;;;;;2.17;1.97;;;21.30;74.70;;;;;;5074849;28;20960;-81
2023/05/13 05:03:48;;;;;;;2.43;2.20;;;21.40;74.70;;;;;;5075029;28;20527;-81
2023/05/13 05:06:16;;;;;;;2.10;2.00;;;21.40;74.80;;;;;;5074752;28;20884;-81
2023/05/13 05:08:43;;;;;;;2.27;2.07;;;21.40;74.80;;;;;;5075071;28;20470;-81
2023/05/13 05:11:10;;;;;;;1.90;1.80;;;21.40;74.80;;;;;;5074498;28;20478;-81
2023/05/13 05:13:37;;;;;;;2.40;2.20;;;21.40;74.70;;;;;;5074795;28;20448;-81
2023/05/13 05:16:04;;;;;;;2.60;2.40;;;21.40;74.80;;;;;;5074542;28;20946;-81
2023/05/13 05:18:30;;;;;;;2.50;2.30;;;21.30;74.70;;;;;;5074646;28;20437;-81
2023/05/13 05:20:58;;;;;;;1.87;1.77;;;21.30;74.70;;;;;;5074625;28;20557;-81
2023/05/13 05:23:26;;;;;;;2.13;2.03;;;21.30;74.70;;;;;;5074602;28;20532;-82
2023/05/13 05:25:53;;;;;;;2.00;1.90;;;21.40;74.70;;;;;;5074356;28;20545;-82
2023/05/13 05:28:20;;;;;;;2.40;2.20;;;21.40;74.70;;;;;;5074639;28;20982;-82
2023/05/13 05:30:47;;;;;;;2.30;2.20;;;21.30;74.70;;;;;;5074308;28;20494;-82
2023/05/13 05:33:14;;;;;;;2.40;2.20;;;21.30;74.60;;;;;;5074298;28;20443;-82
2023/05/13 05:35:40;;;;;;;1.97;1.87;;;21.40;74.80;;;;;;5074435;28;20529;-81
2023/05/13 05:38:08;;;;;;;1.93;1.83;;;21.40;74.70;;;;;;5074287;28;20440;-82
2023/05/13 05:40:40;;;;;;;2.10;2.00;;;21.40;74.70;;;;;;5074263;28;20464;-81
2023/05/13 05:43:07;;;;;;;2.37;2.17;;;21.40;74.80;;;;;;5074226;28;20442;-81
2023/05/13 05:45:35;;;;;;;2.23;2.13;;;21.40;74.70;;;;;;5074001;28;20441;-81
2023/05/13 05:48:02;;;;;;;2.40;2.20;;;21.40;74.70;;;;;;5073944;28;20561;-81
2023/05/13 05:50:29;;;;;;;2.40;2.30;;;21.40;74.70;;;;;;5073929;28;20532;-87
2023/05/13 05:52:58;;;;;;;2.30;2.20;;;21.40;74.70;;;;;;5073617;28;20471;-87
2023/05/13 05:55:24;;;;;;;2.47;2.27;;;21.40;74.70;;;;;;5074227;28;20441;-82
2023/05/13 05:57:53;;;;;;;2.50;2.30;;;21.40;74.70;;;;;;5074161;28;20957;-87
2023/05/13 06:00:20;;;;;;;2.73;2.30;;;21.40;74.70;;;;;;5074371;28;20461;-88
2023/05/13 06:02:47;;;;;;;2.50;2.30;;;21.40;74.70;;;;;;5073890;28;20494;-88
2023/05/13 06:05:14;;;;;;;2.23;2.13;;;21.40;74.70;;;;;;5073781;28;20446;-87
2023/05/13 06:07:41;;;;;;;2.33;2.13;;;21.40;74.70;;;;;;5073615;28;20576;-82
2023/05/13 06:10:08;;;;;;;2.33;2.20;;;21.40;74.70;;;;;;5073656;28;20473;-81
2023/05/13 06:12:36;;;;;;;2.63;2.53;;;21.40;74.60;;;;;;5073866;28;20448;-80
2023/05/13 06:15:09;;;;;;;2.10;2.00;;;21.40;74.70;;;;;;5074075;28;20939;-80
2023/05/13 06:17:36;;;;;;;2.77;2.57;;;21.40;74.70;;;;;;5073728;28;20788;-81
2023/05/13 06:20:03;;;;;;;2.00;1.90;;;21.40;74.60;;;;;;5073504;28;20528;-81
2023/05/13 06:22:30;;;;;;;2.03;1.93;;;21.40;74.70;;;;;;5073453;28;20997;-82
2023/05/13 06:24:59;;;;;;;2.10;2.00;;;21.40;74.70;;;;;;5073493;28;20441;-82
2023/05/13 06:27:26;;;;;;;2.30;2.20;;;21.40;74.70;;;;;;5073161;28;20481;-82
2023/05/13 06:29:53;;;;;;;2.17;2.07;;;21.40;74.70;;;;;;5073447;28;20992;-82
2023/05/13 06:32:21;;;;;;;2.10;2.00;;;21.40;74.60;;;;;;5073422;28;20446;-82
2023/05/13 06:34:51;;;;;;;2.10;2.00;;;21.40;74.70;;;;;;5073428;28;20524;-81
2023/05/13 06:37:20;;;;;;;2.40;2.30;;;21.40;75.50;;;;;;5073079;28;20441;-80
2023/05/13 06:39:47;;;;;;;2.67;2.47;;;21.40;74.60;;;;;;5073506;28;20464;-81
2023/05/13 06:42:14;;;;;;;2.57;2.07;;;21.40;74.70;;;;;;5073166;28;20443;-80
2023/05/13 06:44:41;;;;;;;2.17;2.07;;;21.40;74.60;;;;;;5073287;28;20454;-81
2023/05/13 06:47:14;;;;;;;2.10;2.00;;;21.40;74.60;;;;;;5072868;28;21008;-81
2023/05/13 06:49:42;;;;;;;2.57;2.37;;;21.50;74.70;;;;;;5073295;28;20436;-81
2023/05/13 06:52:10;;;;;;;1.97;1.87;;;21.40;74.60;;;;;;5073051;28;20528;-81
2023/05/13 06:54:36;;;;;;;1.87;1.77;;;21.50;74.60;;;;;;5073003;28;20988;-88
2023/05/13 06:57:04;;;;;;;2.53;2.40;;;21.50;74.50;;;;;;5072870;28;20544;-81
2023/05/13 06:59:33;;;;;;;2.20;2.10;;;21.50;74.50;;;;;;5072898;28;20481;-81
2023/05/13 07:02:00;;;;;;;2.50;2.33;;;21.50;74.40;;;;;;5072144;28;20438;-82
2023/05/13 07:04:28;;;;;;;2.20;2.10;;;21.50;74.40;;;;;;5072932;28;20996;-81
2023/05/13 07:06:56;;;;;;;2.40;2.20;;;21.50;74.30;;;;;;5076302;28;20484;-81
2023/05/13 07:09:23;;;;;;;2.23;2.13;;;21.50;74.20;;;;;;5076873;28;20444;-81
2023/05/13 07:11:50;;;;;;;2.40;2.20;;;21.50;74.20;;;;;;5076987;28;20444;-81
2023/05/13 07:14:17;;;;;;;2.17;2.07;;;21.60;74.20;;;;;;5077025;28;20438;-81
2023/05/13 07:16:44;;;;;;;2.70;2.50;;;21.60;74.10;;;;;;5076972;28;20436;-81
2023/05/13 07:19:11;;;;;;;2.63;2.43;;;21.60;74.10;;;;;;5077057;28;20788;-81
2023/05/13 07:21:38;;;;;;;2.27;1.93;;;21.60;73.90;;;;;;5076829;28;20433;-82
2023/05/13 07:24:06;;;;;;;5.30;2.53;;;21.60;73.90;;;;;;5076757;28;20516;-81
2023/05/13 07:26:33;;;;;;;2.60;2.40;;;21.60;73.90;;;;;;5076509;28;20432;-83
2023/05/13 07:29:00;;;;;;;1.90;1.80;;;21.60;74.70;;;;;;5076679;28;20448;-82
2023/05/13 07:31:27;;;;;;;2.20;2.10;;;21.60;73.90;;;;;;5076690;28;20472;-86
2023/05/13 07:33:54;;;;;;;2.53;2.33;;;21.60;73.80;;;;;;5076648;28;20452;-82
2023/05/13 07:36:22;;;;;;;2.00;1.90;;;21.60;73.80;;;;;;5076601;28;20508;-81
2023/05/13 07:38:48;;;;;;;2.80;2.60;;;21.70;73.80;;;;;;5076522;28;20440;-81
2023/05/13 07:41:17;;;;;;;2.07;1.97;;;21.60;73.70;;;;;;5076609;28;20433;-82
2023/05/13 07:43:43;;;;;;;2.10;2.00;;;21.60;73.70;;;;;;5076487;28;20444;-82
2023/05/13 07:46:10;;;;;;;2.20;2.10;;;21.60;73.60;;;;;;5076184;28;20436;-82
2023/05/13 07:48:37;;;;;;;2.47;2.27;;;21.60;73.60;;;;;;5076300;28;20501;-87
2023/05/13 07:51:05;;;;;;;2.23;2.10;;;21.60;74.30;;;;;;5076288;28;20437;-83
2023/05/13 07:53:32;;;;;;;2.30;2.10;;;21.60;73.90;;;;;;5076148;28;20440;-81
2023/05/13 07:55:58;;;;;;;2.30;2.10;;;21.60;73.40;;;;;;5076296;28;20990;-89
2023/05/13 07:58:27;;;;;;;2.37;2.17;;;21.60;73.40;;;;;;5076127;28;20535;-82
2023/05/13 08:00:53;;;;;;;2.30;2.20;;;21.70;73.60;;;;;;5076230;28;20547;-89
2023/05/13 08:03:20;;;;;;;2.60;2.40;;;21.60;73.40;;;;;;5076019;28;20437;-81
2023/05/13 08:05:48;;;;;;;2.00;1.90;;;21.60;73.50;;;;;;5075890;28;20489;-81
2023/05/13 08:08:14;;;;;;;2.57;2.37;;;21.70;73.60;;;;;;5075820;28;20510;-81
2023/05/13 08:10:41;;;;;;;2.10;2.00;;;21.70;73.60;;;;;;5075575;28;20473;-81
2023/05/13 08:13:08;;;;;;;1.90;1.80;;;21.70;73.70;;;;;;5075871;28;20441;-81
2023/05/13 08:15:38;;;;;;;2.20;2.00;;;21.60;73.50;;;;;;5075842;28;20536;-81
2023/05/13 08:18:05;;;;;;;2.40;2.30;;;21.70;74.50;;;;;;5075636;28;20519;-81
2023/05/13 08:20:33;;;;;;;2.03;1.90;;;21.70;73.70;;;;;;5075855;28;20437;-81
2023/05/13 08:23:00;;;;;;;2.43;2.23;;;21.70;73.70;;;;;;5075796;28;20439;-82
2023/05/13 08:25:27;;;;;;;2.50;2.40;;;21.70;73.80;;;;;;5075802;28;20499;-82
2023/05/13 08:28:04;;;;;;;1.93;1.83;;;21.70;73.80;;;;;;5075393;28;20488;-84
2023/05/13 08:30:31;;;;;;;2.10;2.00;;;21.70;73.80;;;;;;5076238;28;20471;-82
2023/05/13 08:32:59;;;;;;;2.00;1.90;;;21.70;73.80;;;;;;5075561;28;20529;-86
2023/05/13 08:35:26;;;;;;;2.20;2.10;;;21.70;73.80;;;;;;5075767;28;20520;-81
2023/05/13 08:37:53;;;;;;;2.70;2.50;;;21.70;73.80;;;;;;5075413;28;20878;-82
2023/05/13 08:40:21;;;;;;;2.17;2.07;;;21.70;73.80;;;;;;5075380;28;20448;-82
2023/05/13 08:42:50;;;;;;;2.23;2.13;;;21.80;74.00;;;;;;5075380;28;20924;-82
2023/05/13 08:45:20;;;;;;;1.70;1.60;;;21.80;74.10;;;;;;5075255;28;20447;-89
2023/05/13 08:47:51;;;;;;;2.00;1.90;;;21.80;74.90;;;;;;5075144;28;20559;-82
2023/05/13 08:50:19;;;;;;;2.10;1.90;;;21.80;74.10;;;;;;5075205;28;20446;-83
2023/05/13 08:52:46;;;;;;;1.90;1.80;;;21.80;74.10;;;;;;5075195;28;20437;-83
2023/05/13 08:55:14;;;;;;;2.13;2.03;;;21.80;74.20;;;;;;5075504;28;20441;-88
2023/05/13 08:57:41;;;;;;;2.37;2.27;;;21.80;74.10;;;;;;5075007;28;20448;-83
2023/05/13 09:00:09;;;;;;;2.37;2.17;;;21.80;74.10;;;;;;5073659;28;20554;-83
2023/05/13 09:02:36;;;;;;;2.10;2.00;;;21.80;74.10;;;;;;5075605;28;20533;-82
2023/05/13 09:05:06;;;;;;;2.20;2.10;;;21.80;74.20;;;;;;5075037;28;20446;-82
2023/05/13 09:07:35;;;;;;;2.20;2.10;;;21.80;74.20;;;;;;5075378;28;20832;-83
2023/05/13 09:10:03;;;;;;;2.10;2.00;;;21.80;74.20;;;;;;5074727;28;20512;-83
2023/05/13 09:12:46;;;;;;;1.97;1.87;;;21.80;74.30;;;;;;5074720;28;20528;-83
2023/05/13 09:15:14;;;;;;;2.23;2.03;;;21.90;74.40;;;;;;5074720;28;20439;-83
2023/05/13 09:17:42;;;;;;;1.90;1.80;;;21.90;74.40;;;;;;5074668;28;20540;-83
2023/05/13 09:20:11;;;;;;;1.97;1.83;;;21.90;74.50;;;;;;5074744;28;20939;-83
2023/05/13 09:22:44;;;;;;;2.30;2.10;;;21.90;74.40;;;;;;5074618;28;20527;-83
2023/05/13 09:25:12;;;;;;;2.10;2.00;;;21.90;74.40;;;;;;5074719;28;20955;-83
2023/05/13 09:27:40;;;;;;;2.50;2.40;;;21.90;74.30;;;;;;5073752;28;20486;-83
2023/05/13 09:30:08;;;;;;;2.07;1.97;;;21.90;74.40;;;;;;5074266;28;20464;-83
2023/05/13 09:32:35;;;;;;;2.27;2.17;;;21.90;74.30;;;;;;5074351;28;20531;-83
2023/05/13 09:35:09;;;;;;;2.40;2.20;;;21.90;75.20;;;;;;5074474;28;20437;-83
2023/05/13 09:37:36;;;;;;;2.00;1.90;;;21.90;74.40;;;;;;5074511;28;20435;-83
2023/05/13 09:40:06;;;;;;;2.00;1.90;;;22.00;74.40;;;;;;5074123;28;20437;-83
2023/05/13 09:42:33;;;;;;;2.33;2.17;;;21.90;74.40;;;;;;5074386;28;20920;-83
2023/05/13 09:45:06;;;;;;;2.00;1.80;;;22.00;74.40;;;;;;5074074;28;20439;-81
2023/05/13 09:47:32;;;;;;;2.20;2.10;;;22.00;74.40;;;;;;5073911;28;20476;-81
2023/05/13 09:50:02;;;;;;;2.03;1.93;;;22.00;74.40;;;;;;5074243;28;20540;-81
2023/05/13 09:52:30;;;;;;;2.50;2.33;;;22.00;74.40;;;;;;5073969;28;20936;-83
2023/05/13 09:54:57;;;;;;;2.17;2.07;;;22.00;74.30;;;;;;5073937;28;20499;-81
2023/05/13 09:57:27;;;;;;;1.90;1.80;;;22.00;74.40;;;;;;5073796;28;20440;-82
2023/05/13 09:59:58;;;;;;;2.07;1.97;;;22.10;75.40;;;;;;5073742;28;20458;-83
2023/05/13 10:02:25;;;;;;;2.23;2.03;;;22.00;74.40;;;;;;5073715;28;20441;-82
2023/05/13 10:04:53;;;;;;;2.37;2.17;;;22.00;74.30;;;;;;5073648;28;20932;-82
2023/05/13 10:07:23;;;;;;;1.83;1.73;;;22.00;74.40;;;;;;5073653;28;20783;-82
2023/05/13 10:09:53;;;;;;;2.50;2.30;;;22.10;74.50;;;;;;5073421;28;20467;-82
2023/05/13 10:12:21;;;;;;;1.80;1.70;;;22.10;74.50;;;;;;5073743;28;20827;-81
2023/05/13 10:14:51;;;;;;;2.10;1.90;;;22.10;74.50;;;;;;5073593;28;20450;-82
2023/05/13 10:17:20;;;;;;;2.00;1.90;;;22.10;74.40;;;;;;5073997;28;20790;-85
2023/05/13 10:19:50;;;;;;;2.27;2.17;;;22.10;74.40;;;;;;5073478;28;20442;-81
2023/05/13 10:22:21;;;;;;;2.20;2.00;;;22.10;74.40;;;;;;5073455;28;20449;-87
2023/05/13 10:24:48;;;;;;;1.90;1.80;;;22.10;74.40;;;;;;5073711;28;20445;-81
2023/05/13 10:27:17;;;;;;;1.90;1.80;;;22.10;74.40;;;;;;5073304;28;20441;-81
2023/05/13 10:29:45;;;;;;;2.10;2.00;;;22.10;74.40;;;;;;5073212;28;20859;-82
2023/05/13 10:32:15;;;;;;;2.30;2.10;;;22.20;74.50;;;;;;5073336;28;21370;-88
2023/05/13 10:34:43;;;;;;;1.97;1.87;;;22.10;75.30;;;;;;5073275;28;20464;-81
2023/05/13 10:37:39;;;;;;;1.87;1.77;;;22.20;74.50;;;;;;5073151;28;20448;-84
2023/05/13 10:40:29;;;;;;;2.80;2.60;;;22.20;74.50;;;;;;5073248;28;20442;-82
2023/05/13 10:43:09;;;;;;;1.90;1.80;;;22.20;74.50;;;;;;5063626;28;20458;-82
2023/05/13 10:45:36;;;;;;;1.97;1.87;;;22.20;74.50;;;;;;5073095;28;20437;-82
2023/05/13 10:48:07;;;;;;;1.87;1.77;;;22.20;74.60;;;;;;5072995;28;20565;-82
2023/05/13 10:50:37;;;;;;;2.20;2.10;;;22.20;74.50;;;;;;5073153;28;20448;-82
2023/05/13 10:53:09;;;;;;;1.80;1.70;;;22.20;74.50;;;;;;5073251;28;20490;-83
2023/05/13 10:55:44;;;;;;;1.90;1.80;;;22.30;74.60;;;;;;5073098;28;20433;-82
2023/05/13 10:58:12;;;;;;;1.80;1.70;;;22.20;74.40;;;;;;5073094;28;20449;-83
2023/05/13 11:00:41;;;;;;;2.13;1.93;;;22.20;74.50;;;;;;5072903;28;20480;-82
2023/05/13 11:03:28;;;;;;;2.40;2.20;;;22.20;74.40;;;;;;5073002;28;20765;-82
2023/05/13 11:06:15;;;;;;;1.80;1.70;;;22.30;74.60;;;;;;5072767;28;20943;-82
2023/05/13 11:08:43;;;;;;;2.00;1.90;;;22.30;74.50;;;;;;5072780;28;20485;-82
2023/05/13 11:11:31;;;;;;;1.90;1.80;;;22.30;74.60;;;;;;5072891;28;20492;-81
2023/05/13 11:14:15;;;;;;;2.07;1.97;;;22.30;74.50;;;;;;5072864;28;20461;-82
2023/05/13 11:16:47;;;;;;;2.00;1.90;;;22.30;74.70;;;;;;5072882;28;20446;-82
2023/05/13 11:19:22;;;;;;;1.80;1.70;;;22.30;74.50;;;;;;5072940;28;20777;-82
2023/05/13 11:21:52;;;;;;;2.13;2.03;;;22.30;74.40;;;;;;5072906;28;20441;-82
2023/05/13 11:24:20;;;;;;;2.10;2.00;;;22.30;74.60;;;;;;5072694;28;20450;-82
2023/05/13 11:26:49;;;;;;;2.10;2.00;;;22.30;74.50;;;;;;5072518;28;20498;-82
2023/05/13 11:29:27;;;;;;;2.10;2.00;;;22.30;74.60;;;;;;5072691;28;20569;-82
2023/05/13 11:31:56;;;;;;;1.70;1.60;;;22.30;75.30;;;;;;5072777;28;20456;-82
2023/05/13 11:34:25;;;;;;;2.00;1.90;;;22.30;74.60;;;;;;5072749;28;20469;-82
2023/05/13 11:36:56;;;;;;;1.70;1.60;;;22.30;74.60;;;;;;5072708;28;20440;-82
2023/05/13 11:39:25;;;;;;;1.80;1.70;;;22.40;74.70;;;;;;5072894;28;20437;-82
2023/05/13 11:41:53;;;;;;;2.13;1.97;;;22.40;74.60;;;;;;5072874;28;21005;-82
2023/05/13 11:44:21;;;;;;;1.90;1.80;;;22.40;74.60;;;;;;5072652;28;20525;-82
2023/05/13 11:46:56;;;;;;;2.13;2.00;;;22.40;74.50;;;;;;5072427;28;20444;-82
2023/05/13 11:49:38;;;;;;;1.70;1.60;;;22.40;74.50;;;;;;5072730;28;20576;-82
2023/05/13 11:52:08;;;;;;;2.00;1.90;;;22.40;74.50;;;;;;5074464;28;20451;-83
2023/05/13 11:54:42;;;;;;;2.10;2.00;;;22.40;74.50;;;;;;5076194;28;20439;-83
2023/05/13 11:57:22;;;;;;;1.60;1.50;;;22.40;74.60;;;;;;5076113;28;20461;-88
2023/05/13 11:59:57;;;;;;;1.80;1.70;;;22.40;74.40;;;;;;5076068;28;20464;-82
2023/05/13 12:02:25;;;;;;;2.10;1.93;;;22.40;74.50;;;;;;5076229;28;20784;-83
2023/05/13 12:04:54;;;;;;;1.80;1.70;;;22.40;74.50;;;;;;5076034;28;20523;-83
2023/05/13 12:07:22;;;;;;;1.60;1.50;;;22.40;74.40;;;;;;5075816;28;20453;-82
2023/05/13 12:09:49;;;;;;;1.90;1.80;;;22.40;74.40;;;;;;5075724;28;20843;-82
2023/05/13 12:12:16;;;;;;;1.70;1.60;;;22.40;74.40;;;;;;5075968;28;20457;-83
2023/05/13 12:14:45;;;;;;;2.00;1.80;;;22.40;74.50;;;;;;5075997;28;20758;-83
2023/05/13 12:17:12;;;;;;;1.70;1.60;;;22.50;74.50;;;;;;5075812;28;20853;-83
2023/05/13 12:19:39;;;;;;;1.80;1.70;;;22.50;74.30;;;;;;5075886;28;20508;-83
2023/05/13 12:22:08;;;;;;;1.80;1.70;;;22.50;74.40;;;;;;5075880;28;20447;-83
2023/05/13 12:24:34;;;;;;;2.00;1.90;;;22.50;74.20;;;;;;5075811;28;20804;-83
2023/05/13 12:27:05;;;;;;;1.83;1.70;;;22.50;74.20;;;;;;5075558;28;20423;-83
2023/05/13 12:29:41;;;;;;;2.23;2.03;;;22.50;74.20;;;;;;5075582;28;21019;-84
2023/05/13 12:32:10;;;;;;;2.17;2.00;;;22.60;74.10;;;;;;5075648;28;20561;-83
2023/05/13 12:34:38;;;;;;;1.80;1.70;;;22.50;74.10;;;;;;5075518;28;20437;-87
2023/05/13 12:37:13;;;;;;;1.80;1.70;;;22.50;74.20;;;;;;5075358;28;20436;-83
2023/05/13 12:39:41;;;;;;;1.77;1.67;;;22.50;74.20;;;;;;5075652;28;20456;-85
2023/05/13 12:42:14;;;;;;;2.00;1.90;;;22.50;74.30;;;;;;5075405;28;20435;-82
2023/05/13 12:44:43;;;;;;;2.17;2.03;;;22.60;74.40;;;;;;5075467;28;20440;-82
2023/05/13 12:47:10;;;;;;;1.90;1.80;;;22.60;74.20;;;;;;5075245;28;20438;-82
2023/05/13 12:49:51;;;;;;;1.67;1.57;;;22.60;74.20;;;;;;5075127;28;20483;-83
2023/05/13 12:52:20;;;;;;;1.87;1.73;;;22.60;74.10;;;;;;5075215;28;20462;-83
2023/05/13 12:54:47;;;;;;;2.20;2.00;;;22.60;74.10;;;;;;5075094;28;20429;-82